Dover, Illinois
Current Conditions -  °F | °C
As of 10:35 PM on Saturday 20 Dec 2014 (Local Time) from KVYS Reporting Station
Overcast Overcast  
Wind Chill: 26°   Ceiling: 2600
Heat Index: 33°   Visibility: 7mi
Dew Point: 30°   Wind: 8mph
Humidity: 89%   Direction: 160°SSE
Pressure: 30.24"   Gusts: NA
Location:  41.44°N, 89.39°W
Report Text: KVYS 210435Z AUTO 16007KT 7SM BKN026 OVC036 01/M01 A3024 RMK AO2 T00061010
Loading
Personal Weather Stations






























Interactive Weather Map New forecast layout! Learn more

10-Day Weather Forecast

Advertisements
Track Severe Weather on mobile